createdAt,value
2019-06-20T00:00:49.073Z,16.40
2019-06-20T00:03:18.671Z,16.40
2019-06-20T00:05:48.165Z,16.42
2019-06-20T00:08:17.792Z,16.44
2019-06-20T00:10:47.422Z,16.42
2019-06-20T00:13:16.890Z,16.43
2019-06-20T00:15:46.319Z,16.44
2019-06-20T00:18:15.792Z,16.45
2019-06-20T00:20:45.306Z,16.48
2019-06-20T00:23:14.786Z,16.50
2019-06-20T00:25:44.205Z,16.48
2019-06-20T00:28:13.738Z,16.48
2019-06-20T00:30:43.168Z,16.51
2019-06-20T00:33:12.626Z,16.54
2019-06-20T00:35:42.049Z,16.54
2019-06-20T00:38:11.518Z,16.57
2019-06-20T00:40:41.023Z,16.57
2019-06-20T00:43:17.550Z,16.57
2019-06-20T00:45:41.616Z,16.61
2019-06-20T00:48:11.081Z,16.63
2019-06-20T00:50:40.522Z,16.64
2019-06-20T00:53:10.067Z,16.64
2019-06-20T00:55:39.633Z,16.62
2019-06-20T00:58:09.176Z,16.65
2019-06-20T01:00:38.692Z,16.63
2019-06-20T01:03:08.324Z,16.65
2019-06-20T01:05:37.755Z,16.63
2019-06-20T01:08:07.288Z,16.71
2019-06-20T01:10:36.753Z,16.74
2019-06-20T01:13:06.268Z,16.70
2019-06-20T01:15:35.788Z,16.73
2019-06-20T01:18:05.261Z,16.76
2019-06-20T01:20:34.992Z,16.78
2019-06-20T01:23:04.599Z,16.78
2019-06-20T01:25:37.259Z,16.79
2019-06-20T01:28:06.872Z,16.80
2019-06-20T01:30:36.325Z,16.81
2019-06-20T01:33:06.632Z,16.82
2019-06-20T01:35:36.160Z,16.87
2019-06-20T01:38:06.062Z,16.85
2019-06-20T01:40:35.529Z,16.83
2019-06-20T01:43:05.061Z,16.81
2019-06-20T01:45:34.586Z,16.80
2019-06-20T01:48:04.127Z,16.79
2019-06-20T01:50:33.589Z,16.71
2019-06-20T01:53:03.058Z,16.67
2019-06-20T01:55:32.516Z,16.66
2019-06-20T01:58:02.041Z,16.62
2019-06-20T02:00:46.772Z,16.60
2019-06-20T02:03:17.072Z,16.60
2019-06-20T02:05:46.593Z,16.54
2019-06-20T02:08:16.318Z,16.51
2019-06-20T02:10:45.879Z,16.48
2019-06-20T02:13:15.485Z,16.40
2019-06-20T02:15:44.982Z,16.16
2019-06-20T02:18:14.515Z,16.07
2019-06-20T02:20:53.027Z,15.99
2019-06-20T02:23:23.020Z,15.86
2019-06-20T02:25:52.526Z,15.92
2019-06-20T02:28:23.123Z,15.84
2019-06-20T02:30:52.764Z,15.81
2019-06-20T02:33:22.292Z,15.77
2019-06-20T02:35:51.789Z,15.73
2019-06-20T02:38:21.240Z,15.68
2019-06-20T02:40:50.738Z,15.64
2019-06-20T02:43:20.299Z,15.56
2019-06-20T02:45:49.793Z,15.53
2019-06-20T02:48:19.335Z,15.44
2019-06-20T02:50:49.491Z,15.45
2019-06-20T02:53:19.007Z,15.39
2019-06-20T02:55:48.434Z,15.29
2019-06-20T02:58:19.170Z,15.30
2019-06-20T03:00:54.496Z,15.25
2019-06-20T03:03:24.616Z,15.29
2019-06-20T03:05:54.046Z,15.30
2019-06-20T03:08:23.661Z,15.34
2019-06-20T03:10:53.224Z,15.43
2019-06-20T03:13:22.791Z,15.42
2019-06-20T03:15:52.220Z,15.43
2019-06-20T03:18:21.707Z,15.46
2019-06-20T03:20:51.141Z,15.45
2019-06-20T03:23:20.620Z,15.49
2019-06-20T03:25:50.129Z,15.49
2019-06-20T03:28:19.696Z,15.50
2019-06-20T03:30:49.190Z,15.51
2019-06-20T03:33:18.689Z,15.54
2019-06-20T03:35:48.179Z,15.59
2019-06-20T03:38:17.650Z,15.58
2019-06-20T03:40:47.090Z,15.62
2019-06-20T03:43:16.602Z,15.63
2019-06-20T03:45:46.064Z,15.64
2019-06-20T03:48:15.522Z,15.65
2019-06-20T03:50:44.966Z,15.67
2019-06-20T03:53:14.447Z,15.67
2019-06-20T03:55:43.873Z,15.68
2019-06-20T03:58:13.429Z,15.63
2019-06-20T04:00:42.879Z,15.62
2019-06-20T04:03:12.469Z,15.62
2019-06-20T04:05:41.979Z,15.64
2019-06-20T04:08:11.516Z,15.63
2019-06-20T04:10:40.953Z,15.57
2019-06-20T04:13:10.427Z,15.59
2019-06-20T04:15:39.875Z,15.50
2019-06-20T04:18:09.345Z,15.54
2019-06-20T04:20:38.774Z,15.52
2019-06-20T04:23:08.259Z,15.54
2019-06-20T04:25:37.689Z,15.54
2019-06-20T04:28:07.150Z,15.55
2019-06-20T04:30:36.579Z,15.56
2019-06-20T04:33:06.219Z,15.59
2019-06-20T04:35:35.646Z,15.58
2019-06-20T04:38:05.983Z,15.62
2019-06-20T04:40:35.439Z,15.65
2019-06-20T04:43:04.890Z,15.69
2019-06-20T04:45:54.261Z,15.68
2019-06-20T04:48:23.724Z,15.65
2019-06-20T04:50:53.181Z,15.71
2019-06-20T04:53:22.769Z,15.75
2019-06-20T04:55:52.414Z,15.80
2019-06-20T04:58:21.925Z,15.83
2019-06-20T05:00:51.446Z,15.83
2019-06-20T05:03:20.905Z,15.81
2019-06-20T05:05:50.438Z,15.79
2019-06-20T05:08:19.876Z,15.81
2019-06-20T05:10:49.421Z,15.76
2019-06-20T05:13:18.921Z,15.81
2019-06-20T05:15:53.029Z,15.81
2019-06-20T05:18:19.536Z,15.82
2019-06-20T05:20:50.783Z,15.83
2019-06-20T05:23:20.437Z,15.92
2019-06-20T05:25:49.894Z,15.90
2019-06-20T05:28:19.365Z,15.91
2019-06-20T05:30:48.835Z,15.94
2019-06-20T05:33:18.299Z,15.92
2019-06-20T05:35:47.821Z,15.99
2019-06-20T05:38:17.293Z,15.96
2019-06-20T05:40:46.752Z,15.98
2019-06-20T05:43:16.519Z,16.00
2019-06-20T05:45:48.815Z,16.08
2019-06-20T05:48:18.584Z,16.04
2019-06-20T05:50:48.599Z,16.15
2019-06-20T05:53:18.144Z,16.25
2019-06-20T05:55:47.618Z,16.31
2019-06-20T05:58:17.222Z,16.23
2019-06-20T06:00:46.762Z,16.27
2019-06-20T06:03:16.298Z,16.29
2019-06-20T06:05:45.757Z,16.38
2019-06-20T06:08:16.397Z,16.30
2019-06-20T06:10:47.026Z,16.36
2019-06-20T06:13:16.642Z,16.48
2019-06-20T06:15:46.106Z,16.43
2019-06-20T06:18:15.556Z,16.42
2019-06-20T06:20:45.259Z,16.46
2019-06-20T06:23:14.864Z,16.60
2019-06-20T06:25:44.436Z,16.58
2019-06-20T06:28:13.911Z,16.59
2019-06-20T06:30:43.361Z,16.65
2019-06-20T06:33:13.175Z,16.80
2019-06-20T06:35:42.595Z,16.87
2019-06-20T06:38:12.068Z,16.86
2019-06-20T06:40:41.544Z,16.99
2019-06-20T06:43:10.989Z,16.92
2019-06-20T06:45:40.782Z,16.94
2019-06-20T06:48:10.248Z,16.93
2019-06-20T06:50:39.758Z,16.96
2019-06-20T06:53:09.223Z,17.04
2019-06-20T06:55:38.659Z,17.09
2019-06-20T06:58:08.124Z,17.09
2019-06-20T07:00:37.632Z,16.96
2019-06-20T07:03:07.301Z,16.89
2019-06-20T07:05:36.748Z,16.94
2019-06-20T07:08:06.175Z,16.97
2019-06-20T07:10:35.626Z,17.14
2019-06-20T07:13:05.220Z,17.19
2019-06-20T07:15:34.748Z,17.17
2019-06-20T07:18:04.452Z,17.29
2019-06-20T07:20:33.896Z,17.27
2019-06-20T07:23:03.412Z,17.30
2019-06-20T07:25:32.873Z,17.38
2019-06-20T07:28:02.290Z,17.37
2019-06-20T07:30:31.828Z,17.36
2019-06-20T07:33:01.244Z,17.55
2019-06-20T07:35:30.723Z,17.72
2019-06-20T07:38:00.140Z,17.72
2019-06-20T07:40:30.316Z,17.63
2019-06-20T07:42:59.738Z,17.74
2019-06-20T07:45:29.274Z,17.72
2019-06-20T07:47:58.707Z,17.78
2019-06-20T07:50:28.176Z,17.70
2019-06-20T07:53:02.652Z,17.53
2019-06-20T07:55:28.773Z,17.67
2019-06-20T07:57:58.177Z,18.07
2019-06-20T08:00:28.200Z,18.32
2019-06-20T08:02:57.629Z,18.34
2019-06-20T08:05:27.088Z,18.15
2019-06-20T08:07:56.550Z,18.40
2019-06-20T08:10:27.209Z,18.47
2019-06-20T08:12:56.663Z,18.82
2019-06-20T08:15:26.248Z,19.23
2019-06-20T08:17:55.713Z,18.88
2019-06-20T08:20:25.504Z,19.26
2019-06-20T08:22:54.965Z,18.98
2019-06-20T08:25:24.552Z,18.70
2019-06-20T08:27:54.064Z,18.70
2019-06-20T08:30:26.670Z,18.90
2019-06-20T08:32:58.130Z,18.98
2019-06-20T08:35:29.824Z,19.09
2019-06-20T08:38:03.480Z,18.97
2019-06-20T08:40:36.287Z,19.07
2019-06-20T08:43:06.409Z,19.11
2019-06-20T08:45:38.377Z,19.24
2019-06-20T08:48:07.988Z,19.24
2019-06-20T08:50:37.763Z,19.50
2019-06-20T08:53:07.392Z,19.50
2019-06-20T08:55:37.056Z,19.24
2019-06-20T08:58:06.860Z,19.25
2019-06-20T09:00:37.920Z,19.15
2019-06-20T09:03:07.640Z,19.10
2019-06-20T09:05:37.108Z,19.34
2019-06-20T09:08:11.242Z,19.21
2019-06-20T09:10:41.244Z,19.10
2019-06-20T09:13:12.547Z,18.92
2019-06-20T09:15:43.121Z,18.63
2019-06-20T09:18:12.730Z,18.33
2019-06-20T09:20:42.466Z,18.33
2019-06-20T09:23:11.997Z,18.37
2019-06-20T09:25:41.756Z,18.31
2019-06-20T09:28:11.330Z,18.25
2019-06-20T09:30:41.060Z,18.25
2019-06-20T09:33:10.521Z,18.20
2019-06-20T09:35:40.044Z,18.12
2019-06-20T09:38:09.817Z,18.12
2019-06-20T09:40:39.454Z,18.12
2019-06-20T09:43:09.094Z,18.13
2019-06-20T09:45:39.000Z,18.20
2019-06-20T09:48:09.388Z,18.24
2019-06-20T09:50:38.909Z,18.28
2019-06-20T09:53:08.362Z,18.46
2019-06-20T09:55:37.996Z,18.67
2019-06-20T09:58:07.601Z,18.63
2019-06-20T10:00:37.879Z,18.55
2019-06-20T10:03:07.325Z,18.55
2019-06-20T10:05:36.906Z,18.70
2019-06-20T10:08:06.563Z,18.84
2019-06-20T10:10:36.723Z,19.16
2019-06-20T10:13:08.010Z,19.88
2019-06-20T10:15:38.257Z,20.76
2019-06-20T10:18:08.446Z,20.52
2019-06-20T10:20:38.974Z,20.39
2019-06-20T10:23:08.918Z,20.29
2019-06-20T10:25:38.916Z,20.67
2019-06-20T10:28:08.467Z,20.56
2019-06-20T10:30:37.981Z,20.19
2019-06-20T10:33:07.481Z,20.20
2019-06-20T10:35:36.908Z,19.91
2019-06-20T10:38:06.363Z,20.04
2019-06-20T10:40:35.873Z,19.84
2019-06-20T10:43:05.787Z,19.89
2019-06-20T10:45:36.390Z,19.97
2019-06-20T10:48:06.345Z,20.20
2019-06-20T10:50:35.879Z,20.08
2019-06-20T10:53:05.492Z,20.27
2019-06-20T10:55:35.005Z,20.50
2019-06-20T10:58:04.882Z,20.15
2019-06-20T11:00:34.362Z,20.13
2019-06-20T11:03:03.975Z,20.09
2019-06-20T11:05:42.067Z,19.93
2019-06-20T11:08:12.906Z,19.82
2019-06-20T11:10:43.595Z,19.75
2019-06-20T11:13:13.728Z,19.45
2019-06-20T11:15:44.077Z,18.94
2019-06-20T11:18:13.622Z,19.07
2019-06-20T11:20:44.351Z,19.06
2019-06-20T11:23:13.983Z,18.89
2019-06-20T11:25:43.697Z,18.62
2019-06-20T11:28:13.152Z,18.40
2019-06-20T11:30:54.069Z,18.33
2019-06-20T11:33:13.924Z,18.57
2019-06-20T11:35:43.566Z,18.56
2019-06-20T11:38:13.060Z,18.25
2019-06-20T11:40:43.823Z,18.07
2019-06-20T11:43:13.488Z,18.06
2019-06-20T11:45:44.167Z,18.36
2019-06-20T11:48:13.777Z,18.30
2019-06-20T11:50:43.238Z,18.64
2019-06-20T11:53:12.727Z,18.84
2019-06-20T11:55:42.742Z,18.77
2019-06-20T11:58:12.207Z,18.89
2019-06-20T12:00:41.747Z,18.93
2019-06-20T12:03:11.233Z,19.01
2019-06-20T12:05:41.866Z,18.94
2019-06-20T12:08:11.833Z,18.87
2019-06-20T12:10:43.067Z,19.23
2019-06-20T12:13:12.573Z,19.77
2019-06-20T12:15:42.830Z,19.67
2019-06-20T12:18:12.467Z,19.67
2019-06-20T12:20:42.893Z,19.84
2019-06-20T12:23:12.444Z,19.99
2019-06-20T12:25:42.716Z,20.76
2019-06-20T12:28:12.265Z,21.02
2019-06-20T12:30:41.708Z,20.69
2019-06-20T12:33:12.696Z,20.84
2019-06-20T12:35:42.791Z,20.51
2019-06-20T12:38:15.118Z,19.97
2019-06-20T12:40:44.089Z,19.41
2019-06-20T12:43:13.600Z,18.98
2019-06-20T12:45:43.973Z,18.64
2019-06-20T12:48:13.443Z,18.11
2019-06-20T12:50:43.073Z,17.64
2019-06-20T12:53:12.592Z,17.26
2019-06-20T12:55:42.472Z,17.26
2019-06-20T12:58:12.146Z,17.10
2019-06-20T13:00:43.613Z,16.99
2019-06-20T13:03:12.885Z,17.19
2019-06-20T13:05:43.263Z,17.36
2019-06-20T13:08:13.700Z,17.87
2019-06-20T13:10:44.191Z,18.26
2019-06-20T13:13:13.807Z,18.81
2019-06-20T13:15:44.502Z,18.49
2019-06-20T13:18:14.052Z,18.60
2019-06-20T13:20:44.260Z,18.03
2019-06-20T13:23:13.791Z,17.69
2019-06-20T13:25:44.585Z,17.36
2019-06-20T13:28:14.102Z,17.19
2019-06-20T13:30:47.279Z,17.06
2019-06-20T13:33:14.719Z,16.85
2019-06-20T13:35:45.385Z,17.14
2019-06-20T13:38:14.866Z,17.46
2019-06-20T13:40:45.375Z,17.80
2019-06-20T13:43:14.942Z,18.32
2019-06-20T13:45:44.754Z,18.80
2019-06-20T13:48:14.371Z,19.08
2019-06-20T13:50:45.238Z,19.03
2019-06-20T13:53:14.840Z,18.58
2019-06-20T13:55:45.734Z,18.91
2019-06-20T13:58:15.281Z,18.79
2019-06-20T14:00:45.437Z,18.95
2019-06-20T14:03:15.079Z,19.02
2019-06-20T14:05:45.385Z,18.98
2019-06-20T14:08:15.084Z,18.90
2019-06-20T14:10:46.001Z,18.76
2019-06-20T14:13:19.418Z,18.57
2019-06-20T14:15:48.451Z,18.43
2019-06-20T14:18:18.031Z,18.21
2019-06-20T14:20:48.528Z,18.20
2019-06-20T14:23:18.092Z,17.73
2019-06-20T14:25:48.796Z,17.73
2019-06-20T14:28:18.338Z,17.60
2019-06-20T14:30:48.301Z,17.46
2019-06-20T14:33:17.924Z,17.52
2019-06-20T14:35:47.896Z,17.84
2019-06-20T14:38:20.135Z,17.95
2019-06-20T14:40:49.947Z,18.00
2019-06-20T14:43:19.421Z,17.91
2019-06-20T14:45:50.650Z,17.94
2019-06-20T14:48:21.027Z,17.97
2019-06-20T14:50:51.349Z,18.24
2019-06-20T14:53:20.778Z,18.06
2019-06-20T14:55:51.620Z,17.96
2019-06-20T14:58:21.200Z,17.97
2019-06-20T15:00:51.853Z,18.01
2019-06-20T15:03:21.547Z,18.00
2019-06-20T15:05:52.461Z,18.00
2019-06-20T15:08:22.942Z,18.18
2019-06-20T15:10:52.389Z,18.33
2019-06-20T15:13:21.852Z,18.14
2019-06-20T15:15:51.367Z,18.14
2019-06-20T15:18:20.893Z,18.47
2019-06-20T15:20:51.880Z,18.98
2019-06-20T15:23:21.672Z,18.88
2019-06-20T15:25:52.143Z,19.13
2019-06-20T15:28:21.715Z,18.59
2019-06-20T15:30:52.585Z,18.65
2019-06-20T15:33:22.221Z,18.26
2019-06-20T15:35:53.424Z,18.26
2019-06-20T15:38:22.930Z,17.76
2019-06-20T15:40:53.381Z,17.60
2019-06-20T15:43:23.006Z,17.66
2019-06-20T15:45:53.739Z,17.60
2019-06-20T15:48:23.385Z,17.43
2019-06-20T15:50:52.798Z,17.14
2019-06-20T15:53:23.731Z,17.06
2019-06-20T15:55:53.244Z,17.06
2019-06-20T15:58:22.692Z,17.08
2019-06-20T16:00:52.121Z,17.26
2019-06-20T16:03:21.583Z,17.25
2019-06-20T16:05:51.010Z,17.22
2019-06-20T16:08:20.530Z,17.61
2019-06-20T16:10:49.934Z,18.07
2019-06-20T16:13:19.450Z,19.46
2019-06-20T16:15:48.977Z,19.97
2019-06-20T16:18:18.420Z,19.97
2019-06-20T16:20:47.827Z,20.11
2019-06-20T16:23:17.295Z,20.65
2019-06-20T16:25:46.713Z,20.98
2019-06-20T16:28:16.163Z,20.67
2019-06-20T16:30:45.659Z,20.05
2019-06-20T16:33:24.665Z,20.25
2019-06-20T16:35:46.247Z,20.29
2019-06-20T16:38:15.714Z,20.17
2019-06-20T16:40:47.172Z,19.84
2019-06-20T16:43:18.272Z,20.49
2019-06-20T16:45:47.830Z,20.16
2019-06-20T16:48:17.342Z,20.16
2019-06-20T16:50:46.793Z,20.31
2019-06-20T16:53:16.317Z,20.56
2019-06-20T16:55:45.851Z,20.04
2019-06-20T16:58:15.268Z,20.69
2019-06-20T17:00:46.432Z,20.93
2019-06-20T17:03:15.871Z,21.34
2019-06-20T17:05:45.463Z,21.41
2019-06-20T17:08:14.911Z,21.44
2019-06-20T17:10:44.494Z,21.35
2019-06-20T17:13:13.970Z,21.51
2019-06-20T17:15:43.452Z,21.50
2019-06-20T17:18:12.921Z,21.45
2019-06-20T17:20:42.445Z,21.46
2019-06-20T17:23:11.893Z,20.93
2019-06-20T17:25:42.203Z,21.05
2019-06-20T17:28:11.792Z,20.84
2019-06-20T17:30:41.241Z,20.23
2019-06-20T17:33:10.705Z,20.84
2019-06-20T17:35:40.360Z,20.86
2019-06-20T17:38:09.832Z,20.57
2019-06-20T17:40:39.356Z,20.57
2019-06-20T17:43:08.822Z,20.23
2019-06-20T17:45:39.939Z,20.52
2019-06-20T17:48:09.397Z,19.94
2019-06-20T17:50:39.569Z,20.32
2019-06-20T17:53:10.534Z,20.20
2019-06-20T17:55:39.993Z,20.13
2019-06-20T17:58:09.428Z,20.11
2019-06-20T18:00:39.180Z,20.28
2019-06-20T18:03:08.617Z,20.53
2019-06-20T18:05:38.135Z,20.47
2019-06-20T18:08:15.052Z,20.56
2019-06-20T18:10:40.367Z,20.57
2019-06-20T18:13:09.829Z,20.35
2019-06-20T18:15:39.340Z,20.13
2019-06-20T18:18:08.786Z,20.12
2019-06-20T18:20:38.313Z,19.88
2019-06-20T18:23:07.769Z,19.89
2019-06-20T18:25:37.240Z,20.05
2019-06-20T18:28:06.791Z,19.94
2019-06-20T18:30:39.251Z,19.86
2019-06-20T18:33:08.780Z,19.48
2019-06-20T18:35:38.455Z,19.88
2019-06-20T18:38:08.000Z,19.99
2019-06-20T18:40:37.514Z,19.98
2019-06-20T18:43:06.987Z,19.71
2019-06-20T18:45:36.476Z,19.86
2019-06-20T18:48:06.078Z,19.11
2019-06-20T18:50:35.514Z,19.28
2019-06-20T18:53:05.375Z,19.21
2019-06-20T18:55:34.785Z,18.99
2019-06-20T18:58:04.232Z,18.97
2019-06-20T19:00:35.282Z,19.40
2019-06-20T19:03:05.586Z,19.63
2019-06-20T19:05:35.006Z,19.41
2019-06-20T19:08:04.596Z,19.08
2019-06-20T19:10:34.079Z,18.60
2019-06-20T19:13:03.821Z,17.94
2019-06-20T19:15:33.643Z,17.68
2019-06-20T19:18:03.182Z,17.42
2019-06-20T19:20:32.595Z,17.00
2019-06-20T19:23:02.057Z,16.71
2019-06-20T19:25:31.465Z,16.71
2019-06-20T19:28:00.903Z,16.61
2019-06-20T19:30:44.054Z,16.45
2019-06-20T19:33:13.476Z,16.43
2019-06-20T19:35:42.994Z,16.30
2019-06-20T19:38:12.557Z,16.28
2019-06-20T19:40:44.924Z,15.98
2019-06-20T19:43:14.399Z,15.83
2019-06-20T19:45:44.482Z,15.83
2019-06-20T19:48:14.648Z,15.78
2019-06-20T19:50:44.721Z,15.86
2019-06-20T19:53:14.280Z,15.82
2019-06-20T19:55:44.069Z,15.82
2019-06-20T19:58:13.483Z,15.76
2019-06-20T20:00:43.194Z,15.66
2019-06-20T20:03:12.780Z,15.67
2019-06-20T20:05:42.633Z,15.68
2019-06-20T20:08:12.162Z,15.66
2019-06-20T20:10:49.215Z,15.69
2019-06-20T20:13:18.900Z,15.62
2019-06-20T20:15:48.588Z,15.54
2019-06-20T20:18:18.527Z,15.52
2019-06-20T20:20:48.606Z,15.56
2019-06-20T20:23:18.148Z,15.48
2019-06-20T20:25:47.717Z,15.41
2019-06-20T20:28:17.182Z,15.37
2019-06-20T20:30:46.691Z,15.30
2019-06-20T20:33:16.143Z,15.22
2019-06-20T20:35:45.961Z,15.16
2019-06-20T20:38:15.443Z,15.06
2019-06-20T20:40:45.570Z,15.01
2019-06-20T20:43:14.984Z,14.97
2019-06-20T20:45:44.523Z,14.84
2019-06-20T20:48:14.019Z,14.71
2019-06-20T20:50:43.753Z,14.57
2019-06-20T20:53:13.159Z,14.52
2019-06-20T20:55:42.773Z,14.46
2019-06-20T20:58:12.183Z,14.39
2019-06-20T21:00:47.337Z,14.35
2019-06-20T21:03:16.779Z,14.31
2019-06-20T21:05:51.519Z,14.25
2019-06-20T21:08:17.375Z,14.19
2019-06-20T21:10:47.423Z,14.15
2019-06-20T21:13:16.802Z,14.12
2019-06-20T21:15:46.348Z,14.04
2019-06-20T21:18:15.777Z,13.94
2019-06-20T21:20:45.226Z,13.88
2019-06-20T21:23:14.658Z,13.85
2019-06-20T21:25:44.126Z,13.81
2019-06-20T21:28:13.553Z,13.82
2019-06-20T21:30:43.155Z,13.76
2019-06-20T21:33:12.571Z,13.64
2019-06-20T21:35:42.093Z,13.56
2019-06-20T21:38:11.529Z,13.49
2019-06-20T21:40:40.985Z,13.48
2019-06-20T21:43:10.408Z,13.46
2019-06-20T21:45:39.853Z,13.40
2019-06-20T21:48:09.343Z,13.37
2019-06-20T21:50:38.960Z,13.35
2019-06-20T21:53:08.455Z,13.33
2019-06-20T21:55:37.907Z,13.31
2019-06-20T21:58:07.413Z,13.25
2019-06-20T22:00:41.562Z,13.20
2019-06-20T22:03:11.419Z,13.21
2019-06-20T22:05:41.020Z,13.17
2019-06-20T22:08:10.609Z,13.13
2019-06-20T22:10:40.063Z,13.08
2019-06-20T22:13:09.564Z,13.06
2019-06-20T22:15:39.132Z,13.00
2019-06-20T22:18:08.625Z,12.96
2019-06-20T22:20:38.212Z,12.92
2019-06-20T22:23:07.640Z,12.91
2019-06-20T22:25:37.162Z,12.87
2019-06-20T22:28:06.653Z,12.85
2019-06-20T22:30:48.248Z,12.80
2019-06-20T22:33:17.714Z,12.81
2019-06-20T22:35:47.263Z,12.76
2019-06-20T22:38:16.809Z,12.73
2019-06-20T22:40:46.747Z,12.70
2019-06-20T22:43:16.555Z,12.73
2019-06-20T22:45:46.455Z,12.67
2019-06-20T22:48:15.978Z,12.65
2019-06-20T22:50:45.814Z,12.58
2019-06-20T22:53:15.308Z,12.55
2019-06-20T22:55:45.360Z,12.50
2019-06-20T22:58:14.818Z,12.50
2019-06-20T23:00:44.847Z,12.47
2019-06-20T23:03:14.307Z,12.47
2019-06-20T23:05:43.762Z,12.45
2019-06-20T23:08:13.349Z,12.44
2019-06-20T23:10:42.817Z,12.44
2019-06-20T23:13:12.580Z,12.44
2019-06-20T23:15:42.055Z,12.42
2019-06-20T23:18:11.580Z,12.48
2019-06-20T23:20:41.579Z,12.57
2019-06-20T23:23:11.040Z,12.56
2019-06-20T23:25:42.214Z,12.56
2019-06-20T23:28:11.793Z,12.57
2019-06-20T23:30:41.603Z,12.66
2019-06-20T23:33:11.235Z,12.59
2019-06-20T23:35:40.690Z,12.59
2019-06-20T23:38:10.153Z,12.56
2019-06-20T23:40:39.609Z,12.56
2019-06-20T23:43:09.073Z,12.57
2019-06-20T23:45:40.156Z,12.54
2019-06-20T23:48:09.655Z,12.54
2019-06-20T23:50:39.067Z,12.56
2019-06-20T23:53:15.927Z,12.51
2019-06-20T23:55:45.466Z,12.46
2019-06-20T23:58:15.052Z,12.39
